• Join FlightAware (Why Join?)
  • Login
  • US Flag 
03:15PM EDT


 

Airport Tracker/Info


-or-


 

Live Flight TrackerFlight Track Log ✈ LOF3416 ✈ 24-Apr-2013 ✈ KIAD - KDAY

Flight Track Log - Related Links

Times and Time Zones

All times are in EDT time to prevent confusion due to time zone crossing. See the LOF3416 flight status page for this flight to view local times or setup timezone preferences in your user account.

Time Position Orientation Groundspeed Altitude Reporting Facility
EDT Latitude Longitude Course Direction KTS MPH feet Rate Location/Type
10:22PM 38.8183 -77.5447 303° West 250 288 6,100  Level Washington Center
10:23PM 38.7839 -77.6075 235° Southwest 256 295 8,200 2,280 Climbing Washington Center
10:24PM 38.7658 -77.6897 254° West 250 288 10,700 2,100 Climbing Washington Center
10:25PM 38.8884 -77.9867 288° West  Level FlightAware Approximate
10:25PM 38.7956 -77.7811 293° West 237 273 12,400  Level Washington Center
10:26PM 38.9152 -78.0939 288° West  Level FlightAware Approximate
10:26PM 38.8311 -77.8781 295° West 273 314 13,900  Level Washington Center
10:27PM 38.9486 -78.1971 303° West  Level FlightAware Approximate
10:27PM 38.8711 -77.9753 298° West 298 343 15,900  Level Washington Center
10:28PM 38.9067 -78.0725 295° West 303 349 17,200 1,680 Climbing Washington Center
10:29PM 38.9442 -78.1700 296° West 303 349 19,300 1,860 Climbing Washington Center
10:30PM 38.9608 -78.2719 282° West 296 341 21,000 1,680 Climbing Washington Center
10:31PM 38.9667 -78.3789 274° West 290 334 22,700 1,500 Climbing Washington Center
10:32PM 38.9683 -78.4803 271° West 290 334 24,000 600 Climbing Washington Center
10:33PM 38.9739 -78.5956 274° West 304 350 24,000  Level Washington Center
10:34PM 38.9769 -78.7211 272° West 329 379 24,000  Level Washington Center
10:35PM 38.9800 -78.8442 272° West 346 398 24,000  Level Washington Center
10:36PM 38.9847 -78.9725 273° West 357 411 24,000  Level Washington Center
10:37PM 38.9875 -79.0981 272° West 357 411 24,000  Level Washington Center
10:38PM 38.9894 -79.2372 271° West 357 411 24,000  Level Washington Center
10:39PM 38.9942 -79.3522 273° West 357 411 24,000  Level Washington Center
10:40PM 38.9964 -79.4831 271° West 362 417 24,000  Level Washington Center
10:41PM 38.9983 -79.6169 271° West 367 422 24,000  Level Washington Center
10:42PM 39.0003 -79.7400 271° West 367 422 24,000  Level Washington Center
10:43PM 39.0017 -79.8761 271° West 356 410 24,000  Level Washington Center
10:44PM 39.0308 -79.9981 287° West 348 400 24,000  Level Washington Center
10:46PM 39.1128 -80.1792 300° West 370 426 24,000  Level Indianapolis Center
10:47PM 39.1683 -80.3033 300° West 369 425 24,000  Level Indianapolis Center
10:49PM 39.2550 -80.4989 300° West 368 423 24,000  Level Indianapolis Center
10:50PM 39.3061 -80.6125 300° West 368 423 24,000  Level Indianapolis Center
10:51PM 39.3653 -80.7478 300° West 363 418 24,000  Level Indianapolis Center
10:52PM 39.4156 -80.8617 300° West 363 418 24,000  Level Indianapolis Center
10:53PM 39.4656 -80.9756 300° West 365 420 24,000  Level Indianapolis Center
10:54PM 39.5139 -81.0878 299° West 360 414 24,000  Level Indianapolis Center
10:55PM 39.5636 -81.2014 300° West 362 417 24,000  Level Indianapolis Center
10:56PM 39.6128 -81.3150 299° West 363 418 24,000  Level Indianapolis Center
10:57PM 39.6622 -81.4292 299° West 364 419 24,000  Level Indianapolis Center
10:58PM 39.7122 -81.5464 299° West 363 418 24,000 -540 Level Indianapolis Center
10:59PM 39.7617 -81.6608 299° West 361 415 23,000 -1,380 Descending Indianapolis Center
11:00PM 39.8089 -81.7736 299° West 355 409 21,200 -1,800 Descending Indianapolis Center
11:01PM 39.8553 -81.8828 299° West 344 396 19,400 -1,680 Descending Indianapolis Center
11:02PM 39.9022 -81.9944 299° West 346 398 17,800 -1,680 Descending Indianapolis Center
11:03PM 39.9547 -82.1192 299° West 336 387 16,000 -900 Descending Indianapolis Center
11:04PM 39.9997 -82.2239 299° West 330 380 16,000  Level Indianapolis Center
11:05PM 40.0447 -82.3322 299° West 337 388 16,000  Level Indianapolis Center
11:06PM 40.0917 -82.4442 299° West 347 399 16,000  Level Indianapolis Center
11:07PM 40.1386 -82.5567 299° West 352 405 16,000  Level Indianapolis Center
11:08PM 40.1547 -82.6786 280° West 346 398 16,000  Level Indianapolis Center
11:09PM 40.1628 -82.8028 275° West 342 394 16,000  Level Indianapolis Center
11:10PM 40.1692 -82.9286 274° West 344 396 16,000  Level Indianapolis Center
11:11PM 40.1747 -83.0528 273° West 342 394 16,000 -120 Level Indianapolis Center
11:12PM 40.1811 -83.1775 274° West 343 395 15,800 -1,080 Descending Indianapolis Center
11:13PM 40.1872 -83.3008 274° West 341 392 13,900 -2,100 Descending Indianapolis Center
11:14PM 40.1908 -83.3631 274° West 338 389 12,900 -1,980 Descending Indianapolis Center
11:14PM 40.1931 -83.4219 273° West 334 384 11,900 -1,980 Descending Indianapolis Center
11:15PM 40.1956 -83.4728 274° West 328 377 11,100 -1,800 Descending Indianapolis Center
11:15PM 40.1836 -83.5581 260° West 326 375 10,100 -1,200 Descending Indianapolis Center
11:16PM 40.1750 -83.5850 247° West 323 372 9,900 -120 Descending Indianapolis Center
11:16PM 40.1497 -83.6633 247° West 315 362 10,000 -240 Climbing Indianapolis Center
11:17PM 40.1172 -83.7589 246° West 281 323 9,500 -900 Descending Indianapolis Center
11:18PM 40.1072 -83.7919 248° West 242 278 8,800 -1,800 Descending Indianapolis Center
11:18PM 40.0903 -83.8433 247° West 253 291 7,700 -1,800 Descending Indianapolis Center
11:19PM 40.0800 -83.8758 248° West 242 278 7,000 -1,800 Descending Indianapolis Center
11:19PM 40.0644 -83.9236 247° West 246 283 5,900 -1,680 Descending Indianapolis Center
11:20PM 40.0417 -83.9664 235° Southwest 231 266 5,000 -1,200 Descending Indianapolis Center
11:20PM 40.0275 -83.9933 236° Southwest 239 275 4,700 -720 Descending Indianapolis Center
11:21PM 40.0072 -84.0328 236° Southwest 185 213 4,200 -840 Descending Indianapolis Center
11:21PM 39.9986 -84.0500 237° Southwest 211 243 3,900 -900 Descending Indianapolis Center
11:22PM 39.9850 -84.0761 236° Southwest 129 148 3,400 -900 Descending Indianapolis Center
11:22PM 39.9758 -84.0925 234° Southwest 171 197 3,000 -780 Descending Indianapolis Center